• Join FlightAware (Why Join?)
  • Login
  • US Flag 
12:41PM EST


 

Airport Tracker/Info


-or-


 

Live Flight TrackerFlight Track Log ✈ N93XP ✈ 12-Jul-2013 ✈ KGYY - KDLH

Flight Track Log - Related Links

Times and Time Zones

All times are in EDT time to prevent confusion due to time zone crossing. See the N93XP flight status page for this flight to view local times or setup timezone preferences in your user account.

Time Position Orientation Groundspeed Altitude Reporting Facility
EDT Latitude Longitude Course Direction KTS MPH feet Rate Location/Type
04:31AM 41.6167 -87.4000 312° West 2 2 600  Level Chicago TRACON
04:32AM 41.6322 -87.4417 297° West 193 222 1,400 1,320 Climbing Chicago Center
04:33AM 41.6889 -87.4822 332° Northwest 236 272 3,200 1,800 Climbing Chicago Center
04:34AM 41.7525 -87.5261 333° Northwest 251 289 5,100 1,800 Climbing Chicago Center
04:35AM 41.8197 -87.5753 331° Northwest 268 308 6,900 1,740 Climbing Chicago Center
04:36AM 42.0469 -87.7883 330° Northwest  Level FlightAware Approximate
04:36AM 41.8922 -87.6178 336° Northwest 285 328 8,700  Level Chicago Center
04:37AM 42.1160 -87.8657 312° West  Level FlightAware Approximate
04:37AM 41.9669 -87.6572 339° North 291 335 10,400  Level Chicago Center
04:38AM 42.0433 -87.6986 338° Northwest 297 342 11,800 1,200 Climbing Chicago Center
04:39AM 42.1239 -87.7403 339° North 310 357 12,900 900 Climbing Chicago Center
04:40AM 42.2086 -87.7878 337° Northwest 330 380 13,700 780 Climbing Chicago Center
04:41AM 42.2978 -87.8353 338° Northwest 345 397 14,500 840 Climbing Chicago Center
04:42AM 42.3933 -87.8869 338° Northwest 359 413 15,400 840 Climbing Chicago Center
04:43AM 42.4864 -87.9369 338° Northwest 360 414 16,200 840 Climbing Chicago Center
04:44AM 42.5972 -88.0000 337° Northwest 368 423 17,200 780 Climbing Chicago Center
04:45AM 42.6953 -88.0525 339° North 378 435 17,800 660 Climbing Chicago Center
04:46AM 42.7931 -88.1061 338° Northwest 379 436 18,600 840 Climbing Chicago Center
04:47AM 42.8917 -88.1600 338° Northwest 382 440 19,500 840 Climbing Chicago Center
04:48AM 42.9908 -88.2142 338° Northwest 383 441 20,300 780 Climbing Chicago Center
04:49AM 43.0903 -88.2689 338° Northwest 384 442 21,100 780 Climbing Chicago Center
04:50AM 43.1808 -88.3486 327° Northwest 384 442 21,900 780 Climbing Chicago Center
04:51AM 43.2683 -88.4347 324° Northwest 385 443 22,700 780 Climbing Chicago Center
04:52AM 43.3569 -88.5217 325° Northwest 386 444 23,500 660 Climbing Chicago Center
04:53AM 43.4333 -88.5986 324° Northwest 391 450 24,100 600 Climbing Chicago Center
04:54AM 43.5242 -88.6881 324° Northwest 393 452 24,800 660 Climbing Chicago Center
04:55AM 43.6131 -88.7761 324° Northwest 392 451 25,500 600 Climbing Chicago Center
04:56AM 43.7033 -88.8669 324° Northwest 397 457 26,100 600 Climbing Chicago Center
04:57AM 43.7928 -88.9567 324° Northwest 396 456 26,800 660 Climbing Chicago Center
04:58AM 43.8975 -89.0622 324° Northwest 398 458 27,500 600 Climbing Chicago Center
04:59AM 43.9700 -89.1378 323° Northwest 392 451 28,000 540 Climbing Minneapolis Center
05:00AM 44.0567 -89.2250 324° Northwest 385 443 28,600 540 Climbing Minneapolis Center
05:01AM 44.1403 -89.3114 323° Northwest 377 434 29,200 600 Climbing Minneapolis Center
05:02AM 44.2236 -89.3953 324° Northwest 370 426 29,900 660 Climbing Minneapolis Center
05:03AM 44.3050 -89.4836 322° Northwest 369 425 30,600 540 Climbing Minneapolis Center
05:04AM 44.3872 -89.5661 324° Northwest 366 421 31,100 540 Climbing Minneapolis Center
05:05AM 44.4692 -89.6489 324° Northwest 364 419 31,800 420 Climbing Minneapolis Center
05:06AM 44.5514 -89.7336 324° Northwest 366 421 32,000 60 Climbing Minneapolis Center
05:07AM 44.6350 -89.8219 323° Northwest 375 432 32,000  Level Minneapolis Center
05:08AM 44.7219 -89.9117 324° Northwest 385 443 32,000 -300 Level Minneapolis Center
05:09AM 44.8061 -90.0014 323° Northwest 382 440 31,500 -720 Descending Minneapolis Center
05:10AM 44.8894 -90.0886 323° Northwest 375 432 30,600 -960 Descending Minneapolis Center
05:11AM 44.9731 -90.1775 323° Northwest 375 432 29,600 -1,020 Descending Minneapolis Center
05:12AM 45.0572 -90.2678 323° Northwest 378 435 28,600 -960 Descending Minneapolis Center
05:13AM 45.1433 -90.3589 323° Northwest 384 442 27,700 -960 Descending Minneapolis Center
05:14AM 45.2294 -90.4522 323° Northwest 387 445 26,700 -1,020 Descending Minneapolis Center
05:15AM 45.3181 -90.5456 323° Northwest 393 452 25,700 -960 Descending Minneapolis Center
05:16AM 45.4058 -90.6397 323° Northwest 394 453 24,800 -960 Descending Minneapolis Center
05:17AM 45.4936 -90.7356 323° Northwest 396 456 23,800 -1,080 Descending Minneapolis Center
05:18AM 45.5811 -90.8319 322° Northwest 397 457 22,700 -1,200 Descending Minneapolis Center
05:19AM 45.6692 -90.9283 323° Northwest 399 459 21,400 -1,320 Descending Minneapolis Center
05:20AM 45.7592 -91.0247 323° Northwest 402 463 20,100 -1,260 Descending Minneapolis Center
05:21AM 45.8464 -91.1231 322° Northwest 400 460 18,900 -1,200 Descending Minneapolis Center
05:22AM 45.9328 -91.2192 322° Northwest 396 456 17,700 -1,260 Descending Minneapolis Center
05:23AM 46.0178 -91.3125 323° Northwest 390 449 16,400 -1,260 Descending Minneapolis Center
05:24AM 46.0997 -91.4036 322° Northwest 379 436 15,200 -1,260 Descending Minneapolis Center
05:25AM 46.1806 -91.4947 322° Northwest 373 429 13,900 -1,380 Descending Minneapolis Center
05:26AM 46.2586 -91.5819 322° Northwest 359 413 12,500 -1,800 Descending Minneapolis Center
05:27AM 46.3403 -91.6714 323° Northwest 331 381 10,300 -2,100 Descending Minneapolis Center
05:28AM 46.4069 -91.7467 322° Northwest 309 356 8,300 -2,040 Descending Minneapolis Center
05:29AM 46.4678 -91.8186 321° Northwest 292 336 6,300 -2,040 Descending Minneapolis Center
05:30AM 46.5250 -91.8850 321° Northwest 278 320 4,300 -1,200 Descending Minneapolis Center
05:31AM 46.5808 -91.9489 322° Northwest 268 308 4,000 -180 Descending Minneapolis Center
05:32AM 46.6489 -91.9728 346° North 261 300 4,000  Level Minneapolis Center
05:33AM 46.7192 -91.9869 352° North 259 298 4,000  Level Minneapolis Center
05:34AM 46.7903 -92.0058 350° North 259 298 4,000 -180 Level Minneapolis Center
05:35AM 46.8406 -92.0447 332° Northwest 237 273 3,700 -840 Descending Minneapolis Center
05:36AM 46.8400 -92.1028 269° West 174 200 2,400 -960 Descending Minneapolis Center
05:37AM 46.8406 -92.1522 271° West 140 161 1,800 -600 Descending Minneapolis Center
05:39AM 46.8333 -92.1833 326° Northwest  Level FlightAware Approximate
05:46AM 46.8421 -92.1936 326° Northwest  Level Estimated
05:47AM 46.8421 -92.1936 326° Northwest  Level Estimated